Time;durP1;ratioP1;P1;durP2;ratioP2;P2;SDS_P1;SDS_P2;PMS_P1;PMS_P2;Temp;Humidity;BMP_temperature;BMP_pressure;BME280_temperature;BME280_humidity;BME280_pressure;Samples;Min_cycle;Max_cycle;Signal;HPM_P1;HPM_P2
2021/08/22 00:02:03;;;;;;;10.45;6.53;;;22.40;72.40;;;22.19;58.08;97815.88;5083535;28;20032;-37
2021/08/22 00:04:32;;;;;;;8.90;6.90;;;22.00;74.00;;;21.99;58.99;97843.28;5084841;28;20503;-38
2021/08/22 00:07:01;;;;;;;7.50;6.43;;;21.80;75.60;;;21.74;60.11;97874.03;5084727;28;20051;-37
2021/08/22 00:09:29;;;;;;;7.65;6.43;;;21.40;78.20;;;21.41;62.05;97893.34;5084182;28;20066;-37
2021/08/22 00:11:57;;;;;;;7.25;3.90;;;21.20;80.20;;;20.94;58.34;97895.69;5084706;28;20384;-37
2021/08/22 00:14:25;;;;;;;4.57;2.78;;;20.90;73.20;;;20.16;60.36;97861.69;5084346;28;20064;-37
2021/08/22 00:16:53;;;;;;;8.02;3.08;;;19.90;78.60;;;19.66;62.79;97860.47;5084790;28;20357;-38
2021/08/22 00:19:20;;;;;;;3.83;2.40;;;19.00;86.60;;;18.45;66.32;97852.75;5085171;28;20058;-38
2021/08/22 00:21:48;;;;;;;5.72;2.03;;;17.60;92.20;;;18.16;66.26;97840.50;5083605;28;20516;-38
2021/08/22 00:24:16;;;;;;;4.43;1.55;;;17.10;97.30;;;17.89;67.53;97826.97;5084883;28;20078;-38
2021/08/22 00:26:44;;;;;;;3.65;1.70;;;16.80;99.90;;;17.26;69.93;97827.13;5085388;28;20074;-38
2021/08/22 00:29:12;;;;;;;3.60;1.80;;;16.60;99.40;;;17.21;69.75;97829.56;5084608;28;20056;-38
2021/08/22 00:31:40;;;;;;;2.58;1.45;;;16.60;99.70;;;17.02;71.82;97833.81;5083613;28;20056;-38
2021/08/22 00:34:08;;;;;;;3.58;1.45;;;16.60;99.90;;;16.90;72.40;97841.59;5085010;28;20052;-38
2021/08/22 00:36:35;;;;;;;2.10;1.40;;;16.50;99.90;;;16.89;71.29;97835.38;5084189;28;20055;-38
2021/08/22 00:39:05;;;;;;;2.40;1.45;;;16.50;99.90;;;16.93;71.67;97842.03;5082651;28;20071;-38
2021/08/22 00:41:33;;;;;;;3.05;1.90;;;16.60;99.90;;;17.00;71.63;97841.25;5084320;28;20259;-38
2021/08/22 00:44:00;;;;;;;3.40;1.70;;;16.70;99.90;;;17.11;71.64;97838.00;5083508;28;20063;-38
2021/08/22 00:46:35;;;;;;;3.28;2.00;;;16.80;99.90;;;17.25;71.85;97825.44;5084844;28;20048;-38
2021/08/22 00:49:05;;;;;;;4.20;2.05;;;17.00;99.90;;;17.34;71.36;97821.56;5084690;28;20046;-38
2021/08/22 00:51:34;;;;;;;3.85;2.40;;;17.20;99.30;;;17.36;71.57;97808.75;5085270;28;20044;-38
2021/08/22 00:54:02;;;;;;;5.22;2.22;;;17.20;99.00;;;17.39;71.18;97802.13;5085212;28;20335;-38
2021/08/22 00:56:32;;;;;;;3.85;2.22;;;17.20;98.80;;;17.49;70.81;97798.03;5083161;28;20060;-38
2021/08/22 00:59:05;;;;;;;3.47;2.40;;;17.20;98.70;;;17.62;70.62;97796.41;5088044;28;20064;-38
2021/08/22 01:01:34;;;;;;;4.13;2.78;;;17.40;99.40;;;17.71;70.55;97795.19;5089225;28;20059;-38
2021/08/22 01:04:30;;;;;;;4.55;2.55;;;17.50;98.00;;;17.75;70.94;97776.78;5089218;28;20050;-37
2021/08/22 01:07:39;;;;;;;5.78;3.13;;;17.50;98.40;;;17.78;69.96;97774.50;5087594;28;20054;-39
2021/08/22 01:10:10;;;;;;;3.72;2.15;;;17.40;98.60;;;17.81;70.11;97768.69;5088389;28;20522;-37
2021/08/22 01:12:46;;;;;;;4.35;1.95;;;17.50;97.70;;;17.84;69.97;97762.13;5088445;28;20258;-37
2021/08/22 01:15:15;;;;;;;4.22;2.45;;;17.60;97.60;;;17.88;70.21;97737.25;5087766;28;20044;-38
2021/08/22 01:17:50;;;;;;;4.75;2.92;;;17.60;97.30;;;17.94;70.58;97722.16;5086094;28;20056;-39
2021/08/22 01:20:35;;;;;;;4.25;2.95;;;17.70;98.00;;;18.00;70.36;97713.25;5086157;28;20044;-39
2021/08/22 01:23:06;;;;;;;3.97;2.80;;;17.80;97.10;;;18.05;70.51;97713.47;5086581;28;20468;-39
2021/08/22 01:25:37;;;;;;;4.25;2.70;;;17.80;97.60;;;18.12;70.83;97709.94;5086418;28;20047;-39
2021/08/22 01:28:06;;;;;;;3.40;2.83;;;17.90;98.30;;;18.12;71.00;97709.94;5089302;28;20058;-39
2021/08/22 01:30:47;;;;;;;4.32;2.88;;;17.90;98.40;;;18.15;70.57;97707.66;5088841;28;20297;-39
2021/08/22 01:33:18;;;;;;;5.43;2.45;;;17.90;99.30;;;18.19;70.80;97708.88;5088239;28;20056;-39
2021/08/22 01:35:47;;;;;;;7.05;2.53;;;18.00;98.60;;;18.21;70.86;97706.00;5089011;28;20239;-39
2021/08/22 01:38:16;;;;;;;4.53;2.47;;;17.90;98.20;;;18.16;70.90;97706.59;5087235;28;20056;-38
2021/08/22 01:40:46;;;;;;;4.07;2.33;;;17.80;98.50;;;18.16;71.02;97705.78;5086555;28;20369;-38
2021/08/22 01:43:16;;;;;;;4.00;2.53;;;17.80;98.80;;;18.18;70.77;97703.69;5086126;28;20365;-38
2021/08/22 01:45:44;;;;;;;4.30;2.63;;;17.80;98.40;;;18.22;70.85;97710.31;5086422;28;20058;-38
2021/08/22 01:48:14;;;;;;;4.10;2.80;;;17.90;98.20;;;18.23;70.67;97707.44;5087019;28;20326;-38
2021/08/22 01:50:42;;;;;;;4.40;2.67;;;18.00;98.20;;;18.26;70.92;97707.03;5087339;28;20048;-38
2021/08/22 01:53:12;;;;;;;3.97;2.92;;;18.00;97.80;;;18.27;71.02;97705.16;5087272;28;20246;-39
2021/08/22 01:55:41;;;;;;;5.88;2.63;;;18.00;97.80;;;18.30;70.92;97702.88;5086226;28;20044;-39
2021/08/22 01:58:09;;;;;;;3.92;2.70;;;18.00;97.80;;;18.27;71.54;97697.88;5088918;28;20054;-39
2021/08/22 02:00:37;;;;;;;8.57;2.33;;;18.10;97.40;;;18.27;70.96;97689.81;5087625;28;20250;-38
2021/08/22 02:03:19;;;;;;;5.75;3.33;;;18.20;97.30;;;18.32;71.09;97691.03;5085238;28;20074;-39
2021/08/22 02:05:55;;;;;;;7.45;3.30;;;18.20;97.90;;;18.29;71.64;97692.28;5087522;28;20489;-39
2021/08/22 02:08:31;;;;;;;8.27;3.95;;;18.00;97.50;;;18.29;70.96;97686.91;5086818;28;20054;-39
2021/08/22 02:11:20;;;;;;;6.43;3.13;;;18.00;97.40;;;18.34;71.06;97681.72;5085848;28;20044;-38
2021/08/22 02:13:49;;;;;;;5.15;3.30;;;18.20;97.80;;;18.36;71.05;97690.44;5086847;28;20059;-39
2021/08/22 02:16:28;;;;;;;4.50;3.35;;;18.20;97.30;;;18.36;71.27;97689.56;5086518;28;20370;-38
2021/08/22 02:18:58;;;;;;;5.15;3.58;;;18.20;97.30;;;18.39;70.93;97686.47;5085946;28;20358;-38
2021/08/22 02:21:26;;;;;;;5.60;3.38;;;18.20;97.60;;;18.44;70.86;97695.59;5085223;28;20060;-38
2021/08/22 02:23:57;;;;;;;5.30;4.00;;;18.20;96.90;;;18.46;70.87;97688.13;5085473;28;20059;-38
2021/08/22 02:26:25;;;;;;;5.55;4.00;;;18.20;96.60;;;18.44;70.80;97687.50;5086682;28;20048;-37
2021/08/22 02:28:58;;;;;;;4.47;3.22;;;18.20;96.60;;;18.47;70.69;97684.38;5087436;28;20056;-37
2021/08/22 02:31:27;;;;;;;4.30;3.67;;;18.20;96.70;;;18.46;70.60;97688.13;5086260;28;20090;-37
2021/08/22 02:33:57;;;;;;;5.80;3.17;;;18.20;96.60;;;18.49;70.68;97694.94;5086425;28;20305;-37
2021/08/22 02:36:26;;;;;;;6.43;3.78;;;18.20;96.70;;;18.50;70.62;97693.94;5086709;28;20569;-38
2021/08/22 02:38:56;;;;;;;5.38;3.72;;;18.20;96.80;;;18.54;70.71;97694.34;5085846;28;20052;-38
2021/08/22 02:41:24;;;;;;;6.30;3.53;;;18.20;96.70;;;18.57;70.40;97699.28;5086163;28;20366;-38
2021/08/22 02:43:53;;;;;;;5.82;3.55;;;18.20;96.50;;;18.57;70.42;97692.06;5087783;28;20056;-38
2021/08/22 02:46:21;;;;;;;7.63;3.53;;;18.20;96.20;;;18.54;70.35;97680.84;5087394;28;20054;-38
2021/08/22 02:48:49;;;;;;;4.93;3.47;;;18.20;96.50;;;18.56;70.27;97679.59;5085456;28;20044;-38
2021/08/22 02:51:17;;;;;;;4.22;3.40;;;18.20;96.40;;;18.56;70.16;97674.19;5085917;28;20062;-38
2021/08/22 02:53:44;;;;;;;5.55;3.40;;;18.20;95.90;;;18.56;69.83;97676.91;5086431;28;20593;-38
2021/08/22 02:56:12;;;;;;;7.57;4.00;;;18.20;95.70;;;18.54;70.22;97675.47;5085040;28;20059;-38
2021/08/22 02:58:40;;;;;;;5.90;3.55;;;18.20;95.60;;;18.56;70.31;97681.47;5086706;28;20058;-38
2021/08/22 03:01:08;;;;;;;4.97;3.05;;;18.20;95.70;;;18.55;69.96;97683.31;5085418;28;20062;-38
2021/08/22 03:03:36;;;;;;;4.20;3.40;;;18.20;95.30;;;18.52;70.05;97683.75;5085975;28;20378;-38
2021/08/22 03:06:04;;;;;;;5.38;3.17;;;18.20;95.40;;;18.50;70.02;97677.75;5085191;28;20044;-38
2021/08/22 03:08:32;;;;;;;5.47;3.40;;;18.10;95.20;;;18.48;70.02;97686.03;5085639;28;20048;-38
2021/08/22 03:11:00;;;;;;;4.53;3.50;;;18.10;95.40;;;18.49;69.95;97694.94;5086801;28;20051;-38
2021/08/22 03:13:28;;;;;;;5.05;3.42;;;18.10;95.10;;;18.48;69.91;97699.53;5085840;28;20051;-38
2021/08/22 03:15:55;;;;;;;4.65;3.67;;;18.10;95.00;;;18.45;69.93;97701.81;5086243;28;20060;-38
2021/08/22 03:18:23;;;;;;;4.35;3.22;;;18.10;95.20;;;18.46;69.97;97700.78;5085746;28;20078;-38
2021/08/22 03:20:51;;;;;;;5.75;3.65;;;18.10;95.10;;;18.37;70.11;97694.75;5085302;28;20052;-38
2021/08/22 03:23:19;;;;;;;5.45;3.17;;;18.00;94.90;;;18.38;70.04;97692.88;5086012;28;20062;-38
2021/08/22 03:25:47;;;;;;;5.05;3.25;;;18.00;95.10;;;18.39;69.96;97697.25;5085121;28;20052;-38
2021/08/22 03:28:15;;;;;;;4.40;3.00;;;18.10;94.70;;;18.38;69.79;97700.97;5085337;28;20078;-38
2021/08/22 03:30:43;;;;;;;4.60;2.88;;;18.00;94.50;;;18.38;69.84;97707.22;5085433;28;20058;-37
2021/08/22 03:33:11;;;;;;;4.72;3.13;;;18.10;94.70;;;18.39;69.81;97716.94;5085458;28;20048;-38
2021/08/22 03:35:38;;;;;;;5.65;3.60;;;18.10;94.70;;;18.43;69.72;97728.97;5085631;28;20052;-38
2021/08/22 03:38:06;;;;;;;8.48;3.60;;;18.10;94.10;;;18.44;69.54;97725.25;5086164;28;20376;-38
2021/08/22 03:40:34;;;;;;;3.58;2.75;;;18.10;94.00;;;18.45;69.44;97717.97;5082424;28;20060;-37
2021/08/22 03:43:02;;;;;;;7.03;3.15;;;18.10;94.20;;;18.45;69.37;97720.66;5086264;28;20445;-37
2021/08/22 03:45:30;;;;;;;3.42;2.75;;;18.10;93.70;;;18.46;69.18;97720.47;5085117;28;20044;-38
2021/08/22 03:47:58;;;;;;;5.45;3.53;;;18.20;93.50;;;18.47;69.13;97723.97;5084365;28;20060;-37
2021/08/22 03:50:26;;;;;;;4.05;3.38;;;18.10;93.40;;;18.49;69.26;97720.06;5085681;28;20231;-38
2021/08/22 03:52:54;;;;;;;4.22;3.22;;;18.20;93.60;;;18.52;69.25;97726.06;5084967;28;20351;-37
2021/08/22 03:55:22;;;;;;;3.97;3.00;;;18.20;93.30;;;18.47;69.13;97730.19;5085439;28;20054;-38
2021/08/22 03:57:50;;;;;;;8.18;3.53;;;18.10;93.20;;;18.44;69.27;97732.50;5084541;28;20052;-38
2021/08/22 04:00:18;;;;;;;6.30;3.35;;;18.10;93.50;;;18.41;69.49;97741.81;5085886;28;20063;-37
2021/08/22 04:02:46;;;;;;;3.65;2.78;;;18.00;93.50;;;18.40;69.37;97744.75;5085760;28;20051;-37
2021/08/22 04:05:47;;;;;;;4.05;2.97;;;18.10;93.70;;;18.32;69.38;97739.53;5061959;28;20063;-37
2021/08/22 04:08:15;;;;;;;5.75;2.78;;;17.90;93.80;;;18.29;69.46;97735.41;5085659;28;20056;-37
2021/08/22 04:10:43;;;;;;;4.40;3.22;;;17.90;94.00;;;18.28;69.46;97736.44;5085165;28;20242;-37
2021/08/22 04:13:12;;;;;;;4.22;2.83;;;17.90;94.10;;;18.29;69.53;97735.41;5084579;28;20432;-38
2021/08/22 04:15:39;;;;;;;3.85;2.83;;;17.90;94.00;;;18.29;69.61;97738.09;5084193;28;20056;-38
2021/08/22 04:18:07;;;;;;;4.50;3.38;;;17.90;94.00;;;18.27;69.70;97741.00;5084756;28;20114;-38
2021/08/22 04:20:35;;;;;;;3.50;2.50;;;18.00;94.10;;;18.32;69.90;97747.63;5085501;28;20346;-37
2021/08/22 04:23:03;;;;;;;4.85;3.00;;;18.00;94.00;;;18.32;69.72;97736.84;5083864;28;20063;-37
2021/08/22 04:25:31;;;;;;;3.95;3.00;;;18.00;94.00;;;18.38;69.82;97736.00;5083874;28;20052;-37
2021/08/22 04:27:59;;;;;;;4.70;2.80;;;18.10;94.00;;;18.40;69.83;97733.97;5084970;28;20044;-38
2021/08/22 04:30:27;;;;;;;5.70;3.13;;;18.10;93.80;;;18.40;69.74;97720.50;5085040;28;20528;-38
2021/08/22 04:32:54;;;;;;;5.25;2.78;;;18.10;93.80;;;18.41;69.90;97735.59;5086495;28;20048;-37
2021/08/22 04:35:23;;;;;;;4.95;2.60;;;18.20;93.70;;;18.41;69.95;97736.44;5088182;28;20054;-37
2021/08/22 04:37:51;;;;;;;5.68;3.10;;;18.20;93.70;;;18.42;69.95;97735.41;5088708;28;20059;-37
2021/08/22 04:40:19;;;;;;;3.65;2.78;;;18.20;94.10;;;18.49;69.88;97732.69;5088460;28;20048;-38
2021/08/22 04:42:47;;;;;;;4.25;3.00;;;18.30;94.00;;;18.50;69.81;97737.06;5088648;28;20445;-38
2021/08/22 04:45:15;;;;;;;4.25;2.85;;;18.30;93.80;;;18.56;70.00;97740.78;5087771;28;20052;-38
2021/08/22 04:47:43;;;;;;;4.43;3.25;;;18.30;93.70;;;18.56;69.96;97738.91;5088115;28;20052;-37
2021/08/22 04:50:11;;;;;;;5.15;2.80;;;18.40;93.60;;;18.59;69.82;97740.34;5088639;28;20050;-37
2021/08/22 04:52:39;;;;;;;4.68;2.72;;;18.40;93.60;;;18.65;69.95;97737.66;5088898;28;20052;-38
2021/08/22 04:55:07;;;;;;;4.35;2.80;;;18.40;93.70;;;18.69;69.83;97746.97;5089501;28;20058;-37
2021/08/22 04:57:35;;;;;;;4.60;3.35;;;18.50;93.60;;;18.69;69.94;97746.97;5087798;28;20062;-37
2021/08/22 05:00:05;;;;;;;5.10;3.72;;;18.50;93.40;;;18.70;69.97;97754.00;5088414;28;20066;-37
2021/08/22 05:02:33;;;;;;;4.97;2.75;;;18.50;93.60;;;18.69;69.96;97749.66;5087949;28;20481;-37
2021/08/22 05:05:01;;;;;;;4.53;3.00;;;18.50;93.60;;;18.72;69.93;97751.09;5089929;28;20058;-37
2021/08/22 05:07:28;;;;;;;5.32;3.05;;;18.50;93.80;;;18.70;70.08;97756.69;5086914;28;20062;-37
2021/08/22 05:09:56;;;;;;;3.85;2.75;;;18.50;93.70;;;18.70;70.02;97754.00;5087536;28;20051;-38
2021/08/22 05:12:24;;;;;;;5.07;2.80;;;18.50;93.70;;;18.72;70.00;97758.38;5089552;28;20048;-38
2021/08/22 05:14:52;;;;;;;3.90;3.20;;;18.50;93.70;;;18.70;70.09;97754.00;5088235;28;20056;-38
2021/08/22 05:17:20;;;;;;;4.95;3.10;;;18.50;93.70;;;18.74;70.13;97759.00;5089542;28;20052;-38
2021/08/22 05:19:48;;;;;;;5.13;2.67;;;18.60;93.70;;;18.77;70.07;97763.97;5089061;28;20058;-39
2021/08/22 05:22:15;;;;;;;4.30;2.92;;;18.60;93.70;;;18.82;70.15;97764.19;5086875;28;20052;-38
2021/08/22 05:24:43;;;;;;;3.70;2.60;;;18.70;93.90;;;18.85;69.98;97770.00;5087411;28;20056;-38
2021/08/22 05:27:11;;;;;;;4.35;2.78;;;18.70;93.70;;;18.86;70.03;97768.97;5088103;28;20056;-38
2021/08/22 05:29:39;;;;;;;4.65;2.97;;;18.70;93.80;;;18.89;70.11;97771.22;5086898;28;20044;-38
2021/08/22 05:32:07;;;;;;;3.85;2.70;;;18.80;93.60;;;18.92;69.92;97764.59;5087660;28;20044;-38
2021/08/22 05:34:35;;;;;;;4.80;3.17;;;18.80;93.50;;;18.95;70.07;97776.81;5085926;28;20086;-38
2021/08/22 05:37:03;;;;;;;4.78;3.45;;;18.80;93.60;;;18.97;69.98;97777.44;5088364;28;20054;-38
2021/08/22 05:39:32;;;;;;;5.72;2.97;;;18.80;93.50;;;18.98;69.99;97782.63;5087552;28;20067;-38
2021/08/22 05:42:00;;;;;;;3.50;3.00;;;18.80;93.50;;;19.01;69.95;97784.06;5087093;28;20358;-38
2021/08/22 05:44:28;;;;;;;5.80;2.83;;;18.80;93.30;;;19.00;70.05;97779.69;5088376;28;20054;-38
2021/08/22 05:46:56;;;;;;;4.93;3.33;;;18.80;93.20;;;19.01;70.11;97784.88;5088118;28;20369;-38
2021/08/22 05:49:24;;;;;;;3.58;2.85;;;18.90;93.30;;;19.06;69.94;97770.78;5086514;28;20056;-38
2021/08/22 05:51:52;;;;;;;3.83;2.90;;;18.90;93.30;;;19.11;70.07;97776.34;5086873;28;20062;-39
2021/08/22 05:54:19;;;;;;;4.10;3.22;;;19.00;93.20;;;19.07;70.07;97775.94;5087446;28;20053;-38
2021/08/22 05:56:47;;;;;;;5.20;3.08;;;18.90;93.30;;;19.11;70.15;97775.53;5087826;28;20258;-38
2021/08/22 05:59:15;;;;;;;5.22;3.67;;;19.00;93.30;;;19.17;70.15;97778.19;5086848;28;20052;-37
2021/08/22 06:01:43;;;;;;;5.82;3.53;;;19.10;93.20;;;19.23;69.70;97771.13;5087055;28;20216;-38
2021/08/22 06:04:11;;;;;;;5.93;3.20;;;19.20;92.70;;;19.24;69.70;97770.09;5087578;28;20362;-37
2021/08/22 06:06:42;;;;;;;5.05;3.90;;;19.20;92.40;;;19.28;69.70;97765.91;5086786;28;20055;-37
2021/08/22 06:09:10;;;;;;;5.30;3.22;;;19.20;92.60;;;19.32;69.70;97769.84;5085900;28;20245;-37
2021/08/22 06:11:38;;;;;;;4.47;3.20;;;19.20;92.50;;;19.33;69.82;97774.22;5087631;28;20254;-37
2021/08/22 06:14:05;;;;;;;5.72;3.30;;;19.30;92.70;;;19.34;69.66;97775.84;5086365;28;20056;-37
2021/08/22 06:16:33;;;;;;;4.07;3.33;;;19.20;92.70;;;19.37;69.75;97783.53;5086949;28;20056;-37
2021/08/22 06:19:01;;;;;;;4.15;3.28;;;19.30;92.90;;;19.43;69.86;97774.56;5087201;28;20267;-38
2021/08/22 06:21:29;;;;;;;4.57;3.00;;;19.40;92.70;;;19.51;69.82;97773.50;5086354;28;20063;-38
2021/08/22 06:23:58;;;;;;;4.40;2.78;;;19.50;92.30;;;19.56;69.50;97773.69;5086682;28;20354;-38
2021/08/22 06:26:27;;;;;;;4.05;2.80;;;19.60;91.90;;;19.62;69.39;97769.28;5087327;28;20056;-38
2021/08/22 06:28:55;;;;;;;5.35;3.92;;;19.70;91.80;;;19.65;69.32;97776.94;5087717;28;20062;-40
2021/08/22 06:31:23;;;;;;;5.38;3.47;;;19.70;91.70;;;19.71;69.51;97776.06;5087073;28;20254;-38
2021/08/22 06:33:51;;;;;;;5.68;3.40;;;19.70;91.50;;;19.72;69.37;97771.56;5086715;28;20058;-38
2021/08/22 06:36:21;;;;;;;5.70;3.63;;;19.70;91.50;;;19.75;69.29;97771.94;5085515;28;20071;-38
2021/08/22 06:38:49;;;;;;;4.50;3.28;;;19.70;91.20;;;19.77;69.16;97780.63;5086636;28;20051;-37
2021/08/22 06:41:17;;;;;;;4.07;3.03;;;19.80;91.00;;;19.80;68.98;97774.00;5080671;28;20436;-37
2021/08/22 06:43:44;;;;;;;4.90;4.03;;;19.80;91.00;;;19.81;68.69;97781.03;5065229;28;20054;-37
2021/08/22 06:46:12;;;;;;;5.22;3.28;;;19.80;90.50;;;19.84;68.50;97767.94;5066274;28;20055;-38
2021/08/22 06:48:40;;;;;;;5.05;3.80;;;19.90;90.50;;;19.89;68.40;97771.84;5065689;28;20048;-38
2021/08/22 06:51:08;;;;;;;4.43;3.38;;;19.90;90.20;;;19.91;68.40;97778.72;5065948;28;20056;-37
2021/08/22 06:53:36;;;;;;;5.82;3.78;;;19.90;90.00;;;19.91;68.21;97773.31;5064435;28;20052;-37
2021/08/22 06:56:04;;;;;;;6.75;3.95;;;19.90;89.80;;;19.91;68.18;97773.31;5063405;28;20254;-37
2021/08/22 06:58:32;;;;;;;5.18;3.63;;;19.90;89.60;;;19.91;68.34;97772.47;5064259;28;20067;-38
2021/08/22 07:01:00;;;;;;;3.85;2.97;;;19.90;90.00;;;19.90;68.19;97784.31;5062864;28;20067;-37
2021/08/22 07:03:29;;;;;;;3.97;3.45;;;19.90;89.90;;;19.90;68.31;97773.53;5066289;28;20048;-37
2021/08/22 07:05:57;;;;;;;4.65;3.15;;;19.90;89.70;;;19.87;68.12;97777.47;5064746;28;20060;-39
2021/08/22 07:08:25;;;;;;;6.30;4.50;;;19.90;89.90;;;19.89;68.09;97774.56;5065940;28;20417;-37
2021/08/22 07:10:53;;;;;;;6.35;4.40;;;19.90;89.70;;;19.94;67.99;97766.63;5065222;28;20333;-38
2021/08/22 07:13:20;;;;;;;4.72;3.67;;;19.90;89.50;;;19.94;67.80;97767.44;5064465;28;20235;-38
2021/08/22 07:15:48;;;;;;;4.88;3.35;;;19.90;89.10;;;19.97;68.10;97774.31;5063705;28;20065;-38
2021/08/22 07:18:16;;;;;;;5.60;3.72;;;20.00;89.10;;;19.96;67.77;97776.16;5063275;28;20369;-37
2021/08/22 07:20:44;;;;;;;5.88;3.80;;;20.00;89.00;;;20.01;67.76;97779.06;5063857;28;20270;-39
2021/08/22 07:23:13;;;;;;;5.13;4.00;;;20.10;89.10;;;20.01;67.97;97786.34;5064210;28;20061;-38
2021/08/22 07:25:41;;;;;;;4.90;3.53;;;20.00;88.80;;;20.02;67.77;97793.38;5063187;28;20059;-38
2021/08/22 07:28:09;;;;;;;4.07;3.53;;;20.00;89.00;;;19.88;68.25;97799.94;5065087;28;20055;-38
2021/08/22 07:30:37;;;;;;;4.60;3.33;;;19.80;90.10;;;19.84;68.48;97797.66;5062849;28;20060;-38
2021/08/22 07:33:06;;;;;;;5.38;4.07;;;19.70;91.50;;;19.89;68.55;97782.66;5064446;28;20056;-37
2021/08/22 07:35:34;;;;;;;6.20;3.70;;;19.70;91.50;;;19.94;68.67;97783.66;5065250;28;20054;-38
2021/08/22 07:38:02;;;;;;;4.90;3.90;;;19.90;91.10;;;19.96;68.58;97789.66;5064237;28;20044;-37
2021/08/22 07:40:30;;;;;;;5.68;3.60;;;19.90;91.00;;;20.04;68.49;97791.28;5065128;28;20062;-37
2021/08/22 07:42:58;;;;;;;4.22;3.55;;;20.00;91.00;;;20.10;69.00;97790.41;5063771;28;20070;-37
2021/08/22 07:45:26;;;;;;;5.13;3.58;;;20.10;91.30;;;20.18;68.58;97790.16;5065050;28;20056;-37
2021/08/22 07:47:54;;;;;;;5.47;4.03;;;20.30;91.00;;;20.27;68.55;97780.72;5064897;28;20040;-37
2021/08/22 07:50:22;;;;;;;5.25;4.03;;;20.30;90.70;;;20.33;68.84;97787.13;5064793;28;20250;-37
2021/08/22 07:52:50;;;;;;;4.65;3.67;;;20.40;90.70;;;20.33;68.90;97789.81;5065065;28;20052;-37
2021/08/22 07:55:18;;;;;;;4.50;3.80;;;20.40;91.40;;;20.29;69.12;97804.00;5062910;28;20048;-37
2021/08/22 07:57:46;;;;;;;4.88;4.07;;;20.30;91.70;;;20.27;69.41;97802.34;5064528;28;20056;-37
2021/08/22 08:00:15;;;;;;;4.50;3.90;;;20.20;91.60;;;20.27;68.93;97796.94;5061345;28;20038;-37
2021/08/22 08:02:43;;;;;;;5.50;4.68;;;20.20;91.80;;;20.36;69.33;97791.28;5063225;28;20052;-37
2021/08/22 08:05:12;;;;;;;7.88;4.40;;;20.40;92.20;;;20.42;69.28;97799.31;5062533;28;20053;-37
2021/08/22 08:07:40;;;;;;;4.60;3.83;;;20.50;92.20;;;20.44;69.23;97794.53;5062871;28;20381;-37
2021/08/22 08:10:13;;;;;;;5.97;3.72;;;20.50;91.80;;;20.50;69.00;97794.69;5062814;28;20468;-37
2021/08/22 08:12:41;;;;;;;5.53;3.83;;;20.50;91.30;;;20.56;68.84;97804.63;5062616;28;20046;-37
2021/08/22 08:15:09;;;;;;;8.13;4.85;;;20.60;91.20;;;20.56;68.76;97802.75;5062711;28;20453;-37
2021/08/22 08:17:39;;;;;;;4.28;3.53;;;20.60;90.70;;;20.60;68.48;97812.09;5063456;28;20335;-37
2021/08/22 08:20:07;;;;;;;4.43;4.00;;;20.70;90.50;;;20.65;68.32;97803.34;5064157;28;20358;-37
2021/08/22 08:22:35;;;;;;;6.03;4.97;;;20.70;89.80;;;20.68;68.49;97816.41;5063337;28;20287;-37
2021/08/22 08:25:04;;;;;;;5.15;4.13;;;20.80;89.90;;;20.67;68.48;97801.22;5064075;28;20079;-39
2021/08/22 08:27:32;;;;;;;8.10;4.20;;;20.80;90.20;;;20.78;68.93;97813.19;5063548;28;20241;-37
2021/08/22 08:29:59;;;;;;;4.65;3.63;;;20.90;90.90;;;20.78;68.58;97813.19;5066303;28;20049;-37
2021/08/22 08:32:27;;;;;;;5.43;3.60;;;20.90;90.20;;;20.87;68.75;97811.03;5064998;28;20361;-37
2021/08/22 08:34:56;;;;;;;5.35;3.95;;;21.00;90.50;;;20.78;68.48;97822.16;5064424;28;20052;-37
2021/08/22 08:37:24;;;;;;;4.20;3.25;;;20.90;89.90;;;20.65;68.33;97814.16;5064853;28;20238;-37
2021/08/22 08:39:52;;;;;;;5.35;3.05;;;20.70;89.60;;;20.59;68.37;97813.16;5065114;28;20058;-37
2021/08/22 08:42:51;;;;;;;4.40;3.30;;;20.60;90.60;;;20.55;68.41;97817.31;5063916;28;20055;-37
2021/08/22 08:46:00;;;;;;;4.28;3.38;;;20.50;91.00;;;20.39;69.02;97821.38;5045375;28;20057;-37
2021/08/22 08:48:38;;;;;;;3.97;3.33;;;20.50;91.50;;;20.50;69.16;97824.44;5044293;28;20107;-37
2021/08/22 08:51:52;;;;;;;4.32;2.90;;;20.60;91.30;;;20.52;68.83;97836.69;5041333;28;20049;-37
2021/08/22 08:54:32;;;;;;;;;;;20.60;90.70;;;20.42;69.01;97833.66;5042396;28;20060;-37
2021/08/22 08:57:01;;;;;;;3.28;2.80;;;20.50;90.30;;;20.55;68.93;97832.69;5043508;28;19920;-37
2021/08/22 08:59:28;;;;;;;4.45;3.38;;;20.60;90.40;;;20.63;68.49;97822.47;5043960;28;20061;-37
2021/08/22 09:01:57;;;;;;;4.78;3.45;;;20.70;90.50;;;20.59;68.39;97825.81;5042996;28;20063;-37
2021/08/22 09:04:28;;;;;;;4.82;3.85;;;20.70;89.50;;;20.57;68.28;97823.34;5043438;28;20365;-37
2021/08/22 09:07:52;;;;;;;4.60;3.80;;;20.70;89.20;;;20.56;68.18;97820.84;5044053;28;20065;-37
2021/08/22 09:11:06;;;;;;;4.63;3.65;;;20.70;89.10;;;20.62;68.14;97820.81;5001983;28;20068;-37
2021/08/22 09:14:20;;;;;;;4.95;3.97;;;20.60;89.70;;;20.70;68.01;97818.88;5060478;28;20047;-36
2021/08/22 09:17:25;;;;;;;7.57;4.65;;;20.80;89.20;;;20.81;67.73;97818.16;5078558;28;20056;-37
2021/08/22 09:20:32;;;;;;;5.38;4.60;;;20.90;88.90;;;20.75;67.45;97827.16;5072546;28;20248;-37
2021/08/22 09:23:33;;;;;;;5.93;4.63;;;20.80;87.90;;;20.84;67.55;97818.53;5084292;28;20248;-37
2021/08/22 09:26:57;;;;;;;6.60;5.18;;;21.00;88.30;;;20.94;67.13;97828.84;5083926;28;20050;-37
2021/08/22 09:30:09;;;;;;;6.35;5.22;;;21.10;87.60;;;20.84;66.81;97823.13;5082285;28;20270;-37
2021/08/22 09:33:34;;;;;;;6.03;5.00;;;21.00;86.30;;;20.84;67.43;97817.72;5083238;28;20052;-37
2021/08/22 09:36:24;;;;;;;8.13;5.80;;;20.90;87.80;;;20.93;67.12;97816.38;5083239;28;20049;-37
2021/08/22 09:39:30;;;;;;;6.45;4.85;;;21.10;87.20;;;20.99;66.99;97818.16;5084380;28;20049;-37
2021/08/22 09:42:54;;;;;;;6.20;4.65;;;21.20;86.30;;;21.02;66.75;97817.75;5083636;28;20347;-37
2021/08/22 09:46:05;;;;;;;6.40;5.25;;;21.20;86.30;;;20.95;66.26;97825.09;5080600;28;20048;-37
2021/08/22 09:49:28;;;;;;;6.75;5.20;;;21.10;86.10;;;20.89;66.67;97834.09;5081743;28;20044;-37
2021/08/22 09:52:14;;;;;;;8.10;5.95;;;21.10;86.10;;;20.80;66.76;97830.88;5041654;28;20057;-37
2021/08/22 09:55:38;;;;;;;8.48;5.78;;;20.90;87.00;;;20.92;66.97;97835.53;5078155;28;20060;-37
2021/08/22 09:58:43;;;;;;;8.00;5.15;;;21.00;87.60;;;20.77;67.19;97834.00;5081543;28;20063;-37
2021/08/22 10:01:29;;;;;;;7.93;6.50;;;20.90;88.00;;;20.91;67.24;97829.28;5084009;28;20060;-37
2021/08/22 10:04:24;;;;;;;7.95;5.82;;;21.00;88.90;;;20.96;67.48;97831.34;5082515;28;20044;-37
2021/08/22 10:07:22;;;;;;;8.00;5.50;;;21.00;88.30;;;20.84;67.16;97826.66;5084855;28;20224;-37
2021/08/22 10:09:57;;;;;;;6.82;5.82;;;20.90;87.80;;;20.89;67.17;97817.88;5063680;28;20251;-37
2021/08/22 10:12:25;;;;;;;6.68;5.88;;;20.80;88.20;;;20.81;67.39;97824.41;5063962;28;20049;-37
2021/08/22 10:14:53;;;;;;;12.48;6.90;;;20.80;88.10;;;20.81;67.14;97818.97;5070436;28;20061;-37
2021/08/22 10:17:26;;;;;;;6.82;5.90;;;20.80;88.60;;;20.78;67.30;97824.00;5079178;28;20053;-37
2021/08/22 10:19:55;;;;;;;;;;;20.80;88.70;;;20.70;67.75;97816.19;5083844;28;20050;-37
2021/08/22 10:22:25;;;;;;;7.55;5.80;;;20.70;89.40;;;20.80;67.66;97827.31;5083704;28;19916;-37
2021/08/22 10:25:02;;;;;;;8.43;5.97;;;20.80;89.60;;;20.80;67.63;97822.75;5084023;28;20052;-38
2021/08/22 10:27:30;;;;;;;7.05;6.20;;;20.80;89.30;;;20.81;68.03;97816.28;5083604;28;20056;-39
2021/08/22 10:29:59;;;;;;;7.88;6.30;;;20.80;89.20;;;20.78;67.91;97821.28;5083483;28;20052;-38
2021/08/22 10:32:27;;;;;;;6.85;5.97;;;20.80;89.50;;;20.77;68.25;97833.19;5080266;28;20055;-39
2021/08/22 10:35:13;;;;;;;7.28;6.35;;;20.80;89.70;;;20.53;68.38;97837.50;5083130;28;20054;-39
2021/08/22 10:37:43;;;;;;;6.75;6.00;;;20.60;89.80;;;20.46;66.90;97843.78;5080653;28;20048;-39
2021/08/22 10:40:26;;;;;;;2.75;2.13;;;20.40;86.40;;;19.80;63.26;97847.75;5081108;28;20242;-39
2021/08/22 10:43:07;;;;;;;1.73;1.50;;;19.70;81.50;;;19.46;64.12;97844.34;5081960;28;20250;-38
2021/08/22 10:45:46;;;;;;;4.35;2.20;;;19.30;83.70;;;19.45;65.27;97833.75;5081831;28;20070;-38